PWSweather.com
Personal Weather Stations
Station Observations
SHAHALMS1
Eftra, Falkenberg, HA

EftraFalkenberg, HA

Lat: 56.85, Lon: 12.65

Elevation: 140

Station Type:

http://hem.passagen.se/risarp101

High Low Average
Temperature 63.9°F17.7°C 57.4°F14.1°C 60.1°F15.6°C
Dew Point 60.3°F15.7°C 51.7°F10.9°C 56.1°F13.4°C
Winds 20.1 mph 32.3 kmh 1.7 mph 2.7 kmh 9.0 mph SW14.5 kmh SW
Wind Gusts 41.5 mph66.8 kmh 2.1 mph3.4 kmh 16.0 mph25.7 kmh
Humidity 96% 67% 87%
Pressure 30.04 in1017.3 mb 29.83 in1010.2 mb -
Precipitation 0.44 in11.2 mm - -
Hour Temp Dew Point Humidity Winds Wind Gusts Pressure Precip Precip Rate Daily Precip Total
12:00 AM 61.7°F16.5°C 60.0°F15.6°C 94% 3.6 mph W5.8 kmh W 10.7 mph17.2 kmh 29.83 in1010.2 mb 0.00 in0.0 mm 0.00 in0.0 mm 0.00 in0.0 mm
12:10 AM 61.7°F16.5°C 60.0°F15.6°C 94% 3.9 mph W6.3 kmh W 12.5 mph20.1 kmh 29.83 in1010.2 mb 0.00 in0.0 mm 0.00 in0.0 mm 0.00 in0.0 mm
12:20 AM 61.7°F16.5°C 60.0°F15.6°C 94% 4.2 mph W6.8 kmh W 10.0 mph16.1 kmh 29.83 in1010.2 mb 0.00 in0.0 mm 0.00 in0.0 mm 0.00 in0.0 mm
12:30 AM 61.7°F16.5°C 60.0°F15.6°C 94% 2.6 mph W4.2 kmh W 8.6 mph13.8 kmh 29.83 in1010.2 mb 0.00 in0.0 mm 0.00 in0.0 mm 0.00 in0.0 mm
12:40 AM 61.7°F16.5°C 60.3°F15.7°C 95% 4.2 mph WNW6.8 kmh WNW 12.5 mph20.1 kmh 29.86 in1011.2 mb 0.00 in0.0 mm 0.00 in0.0 mm 0.00 in0.0 mm
12:50 AM 61.7°F16.5°C 60.3°F15.7°C 95% 3.7 mph WNW6.0 kmh WNW 10.4 mph16.7 kmh 29.86 in1011.2 mb 0.00 in0.0 mm 0.00 in0.0 mm 0.00 in0.0 mm
01:00 AM 61.7°F16.5°C 60.3°F15.7°C 95% 4.7 mph WNW7.6 kmh WNW 11.5 mph18.5 kmh 29.86 in1011.2 mb 0.00 in0.0 mm 0.00 in0.0 mm 0.00 in0.0 mm
01:10 AM 61.3°F16.3°C 59.6°F15.3°C 94% 5.0 mph WNW8.0 kmh WNW 12.5 mph20.1 kmh 29.86 in1011.2 mb 0.00 in0.0 mm 0.00 in0.0 mm 0.00 in0.0 mm
01:20 AM 61.3°F16.3°C 59.6°F15.3°C 94% 5.7 mph WNW9.2 kmh WNW 16.5 mph26.6 kmh 29.86 in1011.2 mb 0.00 in0.0 mm 0.00 in0.0 mm 0.00 in0.0 mm
01:30 AM 61.3°F16.3°C 59.9°F15.5°C 95% 5.0 mph WNW8.0 kmh WNW 13.6 mph21.9 kmh 29.86 in1011.2 mb 0.00 in0.0 mm 0.00 in0.0 mm 0.00 in0.0 mm
01:40 AM 61.3°F16.3°C 59.9°F15.5°C 95% 5.5 mph WNW8.9 kmh WNW 14.3 mph23.0 kmh 29.89 in1012.2 mb 0.00 in0.0 mm 0.00 in0.0 mm 0.00 in0.0 mm
01:50 AM 61.3°F16.3°C 59.9°F15.5°C 95% 6.6 mph WNW10.6 kmh WNW 13.6 mph21.9 kmh 29.89 in1012.2 mb 0.00 in0.0 mm 0.00 in0.0 mm 0.00 in0.0 mm
02:00 AM 61.2°F16.2°C 59.4°F15.2°C 94% 4.7 mph NW7.6 kmh NW 11.8 mph19.0 kmh 29.89 in1012.2 mb 0.00 in0.0 mm 0.00 in0.0 mm 0.00 in0.0 mm
02:10 AM 61.2°F16.2°C 59.7°F15.4°C 95% 4.6 mph W7.4 kmh W 16.8 mph27.0 kmh 29.89 in1012.2 mb 0.00 in0.0 mm 0.00 in0.0 mm 0.00 in0.0 mm
02:20 AM 61.2°F16.2°C 59.7°F15.4°C 95% 4.1 mph WNW6.6 kmh WNW 8.9 mph14.3 kmh 29.89 in1012.2 mb 0.00 in0.0 mm 0.00 in0.0 mm 0.00 in0.0 mm
02:30 AM 61.2°F16.2°C 59.7°F15.4°C 95% 4.2 mph W6.8 kmh W 13.6 mph21.9 kmh 29.89 in1012.2 mb 0.00 in0.0 mm 0.00 in0.0 mm 0.00 in0.0 mm
02:40 AM 61.2°F16.2°C 59.4°F15.2°C 94% 4.2 mph WNW6.8 kmh WNW 11.5 mph18.5 kmh 29.89 in1012.2 mb 0.00 in0.0 mm 0.00 in0.0 mm 0.00 in0.0 mm
02:50 AM 61.2°F16.2°C 59.7°F15.4°C 95% 3.9 mph WNW6.3 kmh WNW 9.7 mph15.6 kmh 29.89 in1012.2 mb 0.00 in0.0 mm 0.00 in0.0 mm 0.00 in0.0 mm
03:00 AM 61.2°F16.2°C 59.4°F15.2°C 94% 4.7 mph W7.6 kmh W 10.4 mph16.7 kmh 29.89 in1012.2 mb 0.00 in0.0 mm 0.00 in0.0 mm 0.00 in0.0 mm
03:10 AM 61.0°F16.1°C 59.2°F15.1°C 94% 5.9 mph W9.5 kmh W 15.4 mph24.8 kmh 29.89 in1012.2 mb 0.00 in0.0 mm 0.00 in0.0 mm 0.00 in0.0 mm
03:20 AM 61.0°F16.1°C 59.2°F15.1°C 94% 5.3 mph WNW8.5 kmh WNW 11.1 mph17.9 kmh 29.89 in1012.2 mb 0.00 in0.0 mm 0.00 in0.0 mm 0.00 in0.0 mm
03:30 AM 61.0°F16.1°C 59.2°F15.1°C 94% 5.5 mph W8.9 kmh W 12.9 mph20.8 kmh 29.86 in1011.2 mb 0.00 in0.0 mm 0.00 in0.0 mm 0.00 in0.0 mm
03:40 AM 60.8°F16.0°C 59.1°F15.1°C 94% 5.5 mph W8.9 kmh W 14.0 mph22.5 kmh 29.89 in1012.2 mb 0.00 in0.0 mm 0.00 in0.0 mm 0.00 in0.0 mm
03:50 AM 60.6°F15.9°C 58.9°F14.9°C 94% 6.7 mph W10.8 kmh W 14.0 mph22.5 kmh 29.89 in1012.2 mb 0.00 in0.0 mm 0.00 in0.0 mm 0.00 in0.0 mm
04:00 AM 60.4°F15.8°C 58.7°F14.8°C 94% 6.2 mph WNW10.0 kmh WNW 13.6 mph21.9 kmh 29.86 in1011.2 mb 0.00 in0.0 mm 0.00 in0.0 mm 0.00 in0.0 mm
04:10 AM 60.3°F15.7°C 58.5°F14.7°C 94% 7.7 mph WNW12.4 kmh WNW 17.5 mph28.2 kmh 29.89 in1012.2 mb 0.00 in0.0 mm 0.00 in0.0 mm 0.00 in0.0 mm
04:20 AM 60.1°F15.6°C 58.3°F14.6°C 94% 8.2 mph WNW13.2 kmh WNW 20.4 mph32.8 kmh 29.89 in1012.2 mb 0.00 in0.0 mm 0.00 in0.0 mm 0.00 in0.0 mm
04:30 AM 59.9°F15.5°C 58.2°F14.6°C 94% 7.8 mph WNW12.6 kmh WNW 21.5 mph34.6 kmh 29.89 in1012.2 mb 0.00 in0.0 mm 0.00 in0.0 mm 0.00 in0.0 mm
04:40 AM 59.5°F15.3°C 57.8°F14.3°C 94% 6.8 mph WNW10.9 kmh WNW 19.0 mph30.6 kmh 29.89 in1012.2 mb 0.00 in0.0 mm 0.00 in0.0 mm 0.00 in0.0 mm
04:50 AM 59.2°F15.1°C 57.5°F14.2°C 94% 7.4 mph WNW11.9 kmh WNW 22.2 mph35.7 kmh 29.89 in1012.2 mb 0.06 in1.5 mm 0.36 in9.1 mm 0.06 in1.5 mm
05:00 AM 58.8°F14.9°C 57.1°F13.9°C 94% 7.2 mph WNW11.6 kmh WNW 21.1 mph34.0 kmh 29.89 in1012.2 mb 0.06 in1.5 mm 0.00 in0.0 mm 0.06 in1.5 mm
05:10 AM 58.6°F14.8°C 56.9°F13.8°C 94% 7.6 mph WNW12.2 kmh WNW 20.4 mph32.8 kmh 29.92 in1013.2 mb 0.06 in1.5 mm 0.00 in0.0 mm 0.06 in1.5 mm
05:20 AM 58.3°F14.6°C 56.6°F13.7°C 94% 8.2 mph W13.2 kmh W 14.3 mph23.0 kmh 29.92 in1013.2 mb 0.06 in1.5 mm 0.00 in0.0 mm 0.06 in1.5 mm
05:30 AM 58.1°F14.5°C 56.4°F13.6°C 94% 5.9 mph WNW9.5 kmh WNW 20.8 mph33.5 kmh 29.92 in1013.2 mb 0.06 in1.5 mm 0.00 in0.0 mm 0.06 in1.5 mm
05:40 AM 57.9°F14.4°C 56.2°F13.4°C 94% 6.5 mph WNW10.5 kmh WNW 16.1 mph25.9 kmh 29.92 in1013.2 mb 0.06 in1.5 mm 0.00 in0.0 mm 0.06 in1.5 mm
05:50 AM 57.7°F14.3°C 56.0°F13.3°C 94% 4.9 mph WNW7.9 kmh WNW 13.6 mph21.9 kmh 29.92 in1013.2 mb 0.00 in0.0 mm 0.00 in0.0 mm 0.06 in1.5 mm
06:00 AM 57.6°F14.2°C 55.6°F13.1°C 93% 6.3 mph W10.1 kmh W 13.6 mph21.9 kmh 29.95 in1014.2 mb 0.00 in0.0 mm 0.00 in0.0 mm 0.06 in1.5 mm
06:10 AM 57.7°F14.3°C 55.7°F13.2°C 93% 5.9 mph WNW9.5 kmh WNW 11.5 mph18.5 kmh 29.95 in1014.2 mb 0.00 in0.0 mm 0.00 in0.0 mm 0.06 in1.5 mm
06:20 AM 57.7°F14.3°C 55.7°F13.2°C 93% 4.6 mph W7.4 kmh W 7.2 mph11.6 kmh 29.95 in1014.2 mb 0.00 in0.0 mm 0.00 in0.0 mm 0.06 in1.5 mm
06:30 AM 57.6°F14.2°C 55.6°F13.1°C 93% 4.1 mph W6.6 kmh W 8.6 mph13.8 kmh 29.95 in1014.2 mb 0.00 in0.0 mm 0.00 in0.0 mm 0.06 in1.5 mm
06:40 AM 57.4°F14.1°C 54.8°F12.7°C 91% 1.7 mph W2.7 kmh W 2.1 mph3.4 kmh 29.98 in1015.2 mb 0.00 in0.0 mm 0.00 in0.0 mm 0.06 in1.5 mm
06:50 AM 57.6°F14.2°C 54.6°F12.6°C 90% 3.8 mph W6.1 kmh W 5.0 mph8.0 kmh 29.98 in1015.2 mb 0.00 in0.0 mm 0.00 in0.0 mm 0.06 in1.5 mm
07:00 AM 57.7°F14.3°C 54.8°F12.7°C 90% 4.1 mph W6.6 kmh W 5.0 mph8.0 kmh 29.92 in1013.2 mb 0.00 in0.0 mm 0.00 in0.0 mm 0.06 in1.5 mm
07:10 AM 57.7°F14.3°C 54.8°F12.7°C 90% 4.1 mph W6.6 kmh W 5.0 mph8.0 kmh 29.95 in1014.2 mb 0.00 in0.0 mm 0.00 in0.0 mm 0.06 in1.5 mm
07:20 AM 57.9°F14.4°C 54.7°F12.6°C 89% 4.1 mph W6.6 kmh W 5.0 mph8.0 kmh 29.95 in1014.2 mb 0.00 in0.0 mm 0.00 in0.0 mm 0.06 in1.5 mm
07:30 AM 58.1°F14.5°C 54.9°F12.7°C 89% 4.1 mph W6.6 kmh W 5.0 mph8.0 kmh 29.92 in1013.2 mb 0.00 in0.0 mm 0.00 in0.0 mm 0.06 in1.5 mm
07:40 AM 58.3°F14.6°C 55.1°F12.8°C 89% 4.1 mph W6.6 kmh W 5.0 mph8.0 kmh 29.95 in1014.2 mb 0.00 in0.0 mm 0.00 in0.0 mm 0.06 in1.5 mm
07:50 AM 58.6°F14.8°C 55.1°F12.8°C 88% 4.1 mph W6.6 kmh W 5.0 mph8.0 kmh 29.95 in1014.2 mb 0.00 in0.0 mm 0.00 in0.0 mm 0.06 in1.5 mm
08:00 AM 58.6°F14.8°C 54.8°F12.7°C 87% 4.1 mph W6.6 kmh W 5.0 mph8.0 kmh 29.95 in1014.2 mb 0.00 in0.0 mm 0.00 in0.0 mm 0.06 in1.5 mm
08:10 AM 58.8°F14.9°C 55.0°F12.8°C 87% 4.1 mph W6.6 kmh W 5.0 mph8.0 kmh 29.98 in1015.2 mb 0.00 in0.0 mm 0.00 in0.0 mm 0.06 in1.5 mm
08:20 AM 59.2°F15.1°C 54.7°F12.6°C 85% 4.7 mph S7.6 kmh S 5.7 mph9.2 kmh 29.98 in1015.2 mb 0.00 in0.0 mm 0.00 in0.0 mm 0.06 in1.5 mm
08:30 AM 59.5°F15.3°C 54.7°F12.6°C 84% 4.7 mph S7.6 kmh S 5.7 mph9.2 kmh 29.98 in1015.2 mb 0.00 in0.0 mm 0.00 in0.0 mm 0.06 in1.5 mm
08:40 AM 59.4°F15.2°C 54.2°F12.3°C 83% 7.3 mph NW11.7 kmh NW 8.9 mph14.3 kmh 29.98 in1015.2 mb 0.00 in0.0 mm 0.00 in0.0 mm 0.06 in1.5 mm
08:50 AM 59.0°F15.0°C 53.8°F12.1°C 83% 7.3 mph NW11.7 kmh NW 8.9 mph14.3 kmh 29.98 in1015.2 mb 0.00 in0.0 mm 0.00 in0.0 mm 0.06 in1.5 mm
09:00 AM 59.2°F15.1°C 53.7°F12.1°C 82% 7.3 mph NW11.7 kmh NW 8.9 mph14.3 kmh 30.01 in1016.3 mb 0.00 in0.0 mm 0.00 in0.0 mm 0.06 in1.5 mm
09:10 AM 59.7°F15.4°C 53.9°F12.2°C 81% 7.3 mph NW11.7 kmh NW 8.9 mph14.3 kmh 30.01 in1016.3 mb 0.00 in0.0 mm 0.00 in0.0 mm 0.06 in1.5 mm
09:20 AM 60.1°F15.6°C 54.2°F12.3°C 81% 7.3 mph NW11.7 kmh NW 8.9 mph14.3 kmh 30.01 in1016.3 mb 0.00 in0.0 mm 0.00 in0.0 mm 0.06 in1.5 mm
09:30 AM 60.6°F15.9°C 54.4°F12.4°C 80% 7.3 mph NW11.7 kmh NW 8.9 mph14.3 kmh 30.01 in1016.3 mb 0.00 in0.0 mm 0.00 in0.0 mm 0.06 in1.5 mm
09:40 AM 60.8°F16.0°C 54.2°F12.3°C 79% 7.3 mph NW11.7 kmh NW 8.9 mph14.3 kmh 30.01 in1016.3 mb 0.00 in0.0 mm 0.00 in0.0 mm 0.06 in1.5 mm
09:50 AM 61.0°F16.1°C 54.4°F12.4°C 79% 7.3 mph NW11.7 kmh NW 8.9 mph14.3 kmh 30.01 in1016.3 mb 0.00 in0.0 mm 0.00 in0.0 mm 0.06 in1.5 mm
10:00 AM 61.3°F16.3°C 54.4°F12.4°C 78% 11.3 mph S18.2 kmh S 14.0 mph22.5 kmh 30.01 in1016.3 mb 0.00 in0.0 mm 0.00 in0.0 mm 0.06 in1.5 mm
10:10 AM 61.7°F16.5°C 54.1°F12.3°C 76% 9.2 mph S14.8 kmh S 14.0 mph22.5 kmh 30.01 in1016.3 mb 0.00 in0.0 mm 0.00 in0.0 mm 0.06 in1.5 mm
10:20 AM 61.7°F16.5°C 53.7°F12.1°C 75% 12.8 mph S20.6 kmh S 19.7 mph31.7 kmh 30.01 in1016.3 mb 0.00 in0.0 mm 0.00 in0.0 mm 0.06 in1.5 mm
10:30 AM 61.9°F16.6°C 53.5°F11.9°C 74% 7.9 mph S12.7 kmh S 9.7 mph15.6 kmh 30.01 in1016.3 mb 0.00 in0.0 mm 0.00 in0.0 mm 0.06 in1.5 mm
10:40 AM 61.7°F16.5°C 53.3°F11.8°C 74% 7.9 mph S12.7 kmh S 9.7 mph15.6 kmh 30.01 in1016.3 mb 0.00 in0.0 mm 0.00 in0.0 mm 0.06 in1.5 mm
10:50 AM 62.1°F16.7°C 53.7°F12.1°C 74% 11.5 mph S18.5 kmh S 27.6 mph44.4 kmh 30.01 in1016.3 mb 0.00 in0.0 mm 0.00 in0.0 mm 0.06 in1.5 mm
11:00 AM 62.1°F16.7°C 53.7°F12.1°C 74% 14.5 mph S23.3 kmh S 17.9 mph28.8 kmh 30.01 in1016.3 mb 0.00 in0.0 mm 0.00 in0.0 mm 0.06 in1.5 mm
11:10 AM 62.1°F16.7°C 53.3°F11.8°C 73% 14.5 mph S23.3 kmh S 17.9 mph28.8 kmh 30.04 in1017.3 mb 0.00 in0.0 mm 0.00 in0.0 mm 0.06 in1.5 mm
11:20 AM 62.1°F16.7°C 52.9°F11.6°C 72% 20.1 mph S32.3 kmh S 24.7 mph39.8 kmh 30.04 in1017.3 mb 0.00 in0.0 mm 0.00 in0.0 mm 0.06 in1.5 mm
11:30 AM 62.2°F16.8°C 53.5°F11.9°C 73% 20.1 mph S32.3 kmh S 24.7 mph39.8 kmh 30.01 in1016.3 mb 0.00 in0.0 mm 0.00 in0.0 mm 0.06 in1.5 mm
11:40 AM 62.1°F16.7°C 52.9°F11.6°C 72% 20.1 mph S32.3 kmh S 24.7 mph39.8 kmh 30.01 in1016.3 mb 0.00 in0.0 mm 0.00 in0.0 mm 0.06 in1.5 mm
11:50 AM 62.6°F17.0°C 52.7°F11.5°C 70% 13.9 mph S22.4 kmh S 22.2 mph35.7 kmh 30.01 in1016.3 mb 0.00 in0.0 mm 0.00 in0.0 mm 0.06 in1.5 mm
12:00 PM 63.1°F17.3°C 53.2°F11.8°C 70% 13.0 mph S20.9 kmh S 22.2 mph35.7 kmh 30.01 in1016.3 mb 0.00 in0.0 mm 0.00 in0.0 mm 0.06 in1.5 mm
12:10 PM 63.1°F17.3°C 53.2°F11.8°C 70% 11.0 mph S17.7 kmh S 19.7 mph31.7 kmh 30.01 in1016.3 mb 0.00 in0.0 mm 0.00 in0.0 mm 0.06 in1.5 mm
12:20 PM 63.7°F17.6°C 53.7°F12.1°C 70% 14.3 mph S23.0 kmh S 21.1 mph34.0 kmh 30.01 in1016.3 mb 0.00 in0.0 mm 0.00 in0.0 mm 0.06 in1.5 mm
12:30 PM 63.7°F17.6°C 53.7°F12.1°C 70% 14.0 mph SW22.5 kmh SW 21.1 mph34.0 kmh 30.01 in1016.3 mb 0.00 in0.0 mm 0.00 in0.0 mm 0.06 in1.5 mm
12:40 PM 63.9°F17.7°C 53.1°F11.7°C 68% 7.6 mph W12.2 kmh W 9.3 mph15.0 kmh 30.01 in1016.3 mb 0.00 in0.0 mm 0.00 in0.0 mm 0.06 in1.5 mm
12:50 PM 63.7°F17.6°C 52.9°F11.6°C 68% 7.6 mph W12.2 kmh W 9.3 mph15.0 kmh 30.01 in1016.3 mb 0.00 in0.0 mm 0.00 in0.0 mm 0.06 in1.5 mm
01:00 PM 63.5°F17.5°C 52.7°F11.5°C 68% 11.1 mph S17.9 kmh S 13.6 mph21.9 kmh 30.01 in1016.3 mb 0.00 in0.0 mm 0.00 in0.0 mm 0.06 in1.5 mm
01:10 PM 62.8°F17.1°C 51.7°F10.9°C 67% 11.1 mph S17.9 kmh S 13.6 mph21.9 kmh 30.01 in1016.3 mb 0.00 in0.0 mm 0.00 in0.0 mm 0.06 in1.5 mm
01:20 PM 62.2°F16.8°C 51.9°F11.1°C 69% 11.1 mph S17.9 kmh S 13.6 mph21.9 kmh 30.01 in1016.3 mb 0.00 in0.0 mm 0.00 in0.0 mm 0.06 in1.5 mm
01:30 PM 61.9°F16.6°C 52.0°F11.1°C 70% 11.1 mph S17.9 kmh S 13.6 mph21.9 kmh 30.01 in1016.3 mb 0.00 in0.0 mm 0.00 in0.0 mm 0.06 in1.5 mm
01:40 PM 61.9°F16.6°C 52.8°F11.6°C 72% 11.1 mph S17.9 kmh S 13.6 mph21.9 kmh 29.98 in1015.2 mb 0.00 in0.0 mm 0.00 in0.0 mm 0.06 in1.5 mm
01:50 PM 61.5°F16.4°C 52.8°F11.6°C 73% 19.2 mph S30.9 kmh S 23.6 mph38.0 kmh 29.98 in1015.2 mb 0.00 in0.0 mm 0.00 in0.0 mm 0.06 in1.5 mm
02:00 PM 61.5°F16.4°C 53.2°F11.8°C 74% 19.2 mph S30.9 kmh S 23.6 mph38.0 kmh 29.98 in1015.2 mb 0.00 in0.0 mm 0.00 in0.0 mm 0.06 in1.5 mm
02:10 PM 61.3°F16.3°C 53.0°F11.7°C 74% 19.2 mph S30.9 kmh S 23.6 mph38.0 kmh 29.98 in1015.2 mb 0.00 in0.0 mm 0.00 in0.0 mm 0.06 in1.5 mm
02:20 PM 61.3°F16.3°C 53.0°F11.7°C 74% 19.2 mph S30.9 kmh S 23.6 mph38.0 kmh 29.98 in1015.2 mb 0.00 in0.0 mm 0.00 in0.0 mm 0.06 in1.5 mm
02:30 PM 61.5°F16.4°C 52.8°F11.6°C 73% 19.2 mph S30.9 kmh S 23.6 mph38.0 kmh 29.95 in1014.2 mb 0.00 in0.0 mm 0.00 in0.0 mm 0.06 in1.5 mm
02:40 PM 61.7°F16.5°C 53.0°F11.7°C 73% 19.2 mph S30.9 kmh S 23.6 mph38.0 kmh 29.95 in1014.2 mb 0.00 in0.0 mm 0.00 in0.0 mm 0.06 in1.5 mm
02:50 PM 62.1°F16.7°C 53.3°F11.8°C 73% 19.2 mph S30.9 kmh S 23.6 mph38.0 kmh 29.95 in1014.2 mb 0.00 in0.0 mm 0.00 in0.0 mm 0.06 in1.5 mm
03:00 PM 62.2°F16.8°C 52.7°F11.5°C 71% 19.2 mph S30.9 kmh S 23.6 mph38.0 kmh 29.95 in1014.2 mb 0.00 in0.0 mm 0.00 in0.0 mm 0.06 in1.5 mm
03:10 PM 61.9°F16.6°C 52.0°F11.1°C 70% 7.6 mph S12.2 kmh S 9.3 mph15.0 kmh 29.92 in1013.2 mb 0.00 in0.0 mm 0.00 in0.0 mm 0.06 in1.5 mm
03:20 PM 61.7°F16.5°C 52.2°F11.2°C 71% 7.6 mph S12.2 kmh S 9.3 mph15.0 kmh 29.92 in1013.2 mb 0.00 in0.0 mm 0.00 in0.0 mm 0.06 in1.5 mm
03:30 PM 61.7°F16.5°C 52.6°F11.4°C 72% 9.6 mph S15.4 kmh S 12.9 mph20.8 kmh 29.92 in1013.2 mb 0.00 in0.0 mm 0.00 in0.0 mm 0.06 in1.5 mm
03:40 PM 61.3°F16.3°C 52.2°F11.2°C 72% 15.8 mph S25.4 kmh S 23.6 mph38.0 kmh 29.95 in1014.2 mb 0.00 in0.0 mm 0.00 in0.0 mm 0.06 in1.5 mm
03:50 PM 61.0°F16.1°C 53.0°F11.7°C 75% 19.2 mph S30.9 kmh S 23.6 mph38.0 kmh 29.95 in1014.2 mb 0.00 in0.0 mm 0.00 in0.0 mm 0.06 in1.5 mm
04:00 PM 60.4°F15.8°C 53.5°F11.9°C 78% 19.2 mph S30.9 kmh S 23.6 mph38.0 kmh 29.95 in1014.2 mb 0.00 in0.0 mm 0.00 in0.0 mm 0.06 in1.5 mm
04:10 PM 59.7°F15.4°C 53.5°F11.9°C 80% 11.4 mph S18.3 kmh S 19.7 mph31.7 kmh 29.95 in1014.2 mb 0.00 in0.0 mm 0.00 in0.0 mm 0.06 in1.5 mm
04:20 PM 59.0°F15.0°C 53.8°F12.1°C 83% 11.1 mph S17.9 kmh S 16.5 mph26.6 kmh 29.95 in1014.2 mb 0.00 in0.0 mm 0.00 in0.0 mm 0.06 in1.5 mm
04:30 PM 58.8°F14.9°C 54.6°F12.6°C 86% 7.4 mph S11.9 kmh S 11.8 mph19.0 kmh 29.98 in1015.2 mb 0.05 in1.3 mm 0.30 in7.6 mm 0.10 in2.5 mm
04:40 PM 58.8°F14.9°C 55.0°F12.8°C 87% 8.5 mph S13.7 kmh S 24.7 mph39.8 kmh 29.95 in1014.2 mb 0.05 in1.3 mm 0.00 in0.0 mm 0.10 in2.5 mm
04:50 PM 58.6°F14.8°C 55.4°F13.0°C 89% 8.9 mph S14.3 kmh S 21.1 mph34.0 kmh 29.95 in1014.2 mb 0.05 in1.3 mm 0.00 in0.0 mm 0.10 in2.5 mm
05:00 PM 58.6°F14.8°C 55.4°F13.0°C 89% 7.7 mph S12.4 kmh S 16.8 mph27.0 kmh 29.95 in1014.2 mb 0.09 in2.3 mm 0.05 in1.3 mm 0.15 in3.8 mm
05:10 PM 58.6°F14.8°C 55.7°F13.2°C 90% 9.0 mph S14.5 kmh S 15.4 mph24.8 kmh 29.95 in1014.2 mb 0.09 in2.3 mm 0.00 in0.0 mm 0.15 in3.8 mm
05:20 PM 58.5°F14.7°C 55.8°F13.2°C 91% 10.4 mph S16.7 kmh S 21.8 mph35.1 kmh 29.95 in1014.2 mb 0.14 in3.6 mm 0.30 in7.6 mm 0.20 in5.1 mm
05:30 PM 58.5°F14.7°C 56.1°F13.4°C 92% 8.4 mph S13.5 kmh S 15.4 mph24.8 kmh 29.95 in1014.2 mb 0.09 in2.3 mm 0.00 in0.0 mm 0.20 in5.1 mm
05:40 PM 58.3°F14.6°C 56.0°F13.3°C 92% 8.5 mph S13.7 kmh S 16.1 mph25.9 kmh 29.92 in1013.2 mb 0.09 in2.3 mm 0.00 in0.0 mm 0.20 in5.1 mm
05:50 PM 58.5°F14.7°C 56.4°F13.6°C 93% 8.3 mph S13.4 kmh S 17.5 mph28.2 kmh 29.92 in1013.2 mb 0.14 in3.6 mm 0.30 in7.6 mm 0.24 in6.1 mm
06:00 PM 58.6°F14.8°C 56.9°F13.8°C 94% 8.8 mph S14.2 kmh S 21.1 mph34.0 kmh 29.92 in1013.2 mb 0.09 in2.3 mm 0.00 in0.0 mm 0.24 in6.1 mm
06:10 PM 58.6°F14.8°C 56.9°F13.8°C 94% 8.0 mph S12.9 kmh S 17.5 mph28.2 kmh 29.92 in1013.2 mb 0.14 in3.6 mm 0.30 in7.6 mm 0.29 in7.4 mm
06:20 PM 58.6°F14.8°C 56.9°F13.8°C 94% 10.5 mph S16.9 kmh S 21.1 mph34.0 kmh 29.92 in1013.2 mb 0.09 in2.3 mm 0.00 in0.0 mm 0.29 in7.4 mm
06:30 PM 58.6°F14.8°C 56.9°F13.8°C 94% 12.1 mph S19.5 kmh S 27.9 mph44.9 kmh 29.92 in1013.2 mb 0.09 in2.3 mm 0.00 in0.0 mm 0.29 in7.4 mm
06:40 PM 58.5°F14.7°C 56.7°F13.7°C 94% 9.7 mph S15.6 kmh S 23.3 mph37.5 kmh 29.92 in1013.2 mb 0.09 in2.3 mm 0.00 in0.0 mm 0.29 in7.4 mm
06:50 PM 58.6°F14.8°C 56.9°F13.8°C 94% 10.4 mph S16.7 kmh S 27.2 mph43.8 kmh 29.92 in1013.2 mb 0.05 in1.3 mm 0.00 in0.0 mm 0.29 in7.4 mm
07:00 PM 58.6°F14.8°C 56.9°F13.8°C 94% 11.8 mph S19.0 kmh S 41.5 mph66.8 kmh 29.92 in1013.2 mb 0.09 in2.3 mm 0.05 in1.3 mm 0.33 in8.4 mm
07:10 PM 58.6°F14.8°C 57.2°F14.0°C 95% 8.5 mph S13.7 kmh S 20.4 mph32.8 kmh 29.89 in1012.2 mb 0.09 in2.3 mm 0.00 in0.0 mm 0.38 in9.7 mm
07:20 PM 58.6°F14.8°C 57.2°F14.0°C 95% 10.1 mph S16.3 kmh S 20.8 mph33.5 kmh 29.89 in1012.2 mb 0.09 in2.3 mm 0.00 in0.0 mm 0.38 in9.7 mm
07:30 PM 58.6°F14.8°C 57.2°F14.0°C 95% 13.8 mph S22.2 kmh S 27.6 mph44.4 kmh 29.89 in1012.2 mb 0.09 in2.3 mm 0.00 in0.0 mm 0.38 in9.7 mm
07:40 PM 58.8°F14.9°C 57.4°F14.1°C 95% 10.1 mph SW16.3 kmh SW 21.1 mph34.0 kmh 29.92 in1013.2 mb 0.09 in2.3 mm 0.00 in0.0 mm 0.38 in9.7 mm
07:50 PM 58.5°F14.7°C 57.0°F13.9°C 95% 9.1 mph S14.6 kmh S 20.4 mph32.8 kmh 29.92 in1013.2 mb 0.15 in3.8 mm 0.36 in9.1 mm 0.44 in11.2 mm
08:00 PM 58.6°F14.8°C 57.2°F14.0°C 95% 9.7 mph S15.6 kmh S 16.1 mph25.9 kmh 29.92 in1013.2 mb 0.10 in2.5 mm 0.00 in0.0 mm 0.44 in11.2 mm
08:10 PM 58.5°F14.7°C 57.0°F13.9°C 95% 12.2 mph S19.6 kmh S 21.1 mph34.0 kmh 29.92 in1013.2 mb 0.06 in1.5 mm 0.00 in0.0 mm 0.44 in11.2 mm
08:20 PM 58.6°F14.8°C 57.5°F14.2°C 96% 8.8 mph S14.2 kmh S 16.5 mph26.6 kmh 29.92 in1013.2 mb 0.06 in1.5 mm 0.00 in0.0 mm 0.44 in11.2 mm
08:30 PM 58.8°F14.9°C 57.7°F14.3°C 96% 9.5 mph S15.3 kmh S 27.6 mph44.4 kmh 29.92 in1013.2 mb 0.06 in1.5 mm 0.00 in0.0 mm 0.44 in11.2 mm
08:40 PM 58.8°F14.9°C 57.7°F14.3°C 96% 8.4 mph SSW13.5 kmh SSW 20.8 mph33.5 kmh 29.92 in1013.2 mb 0.06 in1.5 mm 0.00 in0.0 mm 0.44 in11.2 mm
08:50 PM 58.8°F14.9°C 57.7°F14.3°C 96% 9.4 mph SW15.1 kmh SW 20.0 mph32.2 kmh 29.92 in1013.2 mb 0.00 in0.0 mm 0.00 in0.0 mm 0.44 in11.2 mm
09:00 PM 58.8°F14.9°C 57.7°F14.3°C 96% 11.0 mph SSW17.7 kmh SSW 22.9 mph36.9 kmh 29.92 in1013.2 mb 0.00 in0.0 mm 0.00 in0.0 mm 0.44 in11.2 mm
09:10 PM 59.0°F15.0°C 57.9°F14.4°C 96% 10.4 mph SSW16.7 kmh SSW 27.6 mph44.4 kmh 29.92 in1013.2 mb 0.00 in0.0 mm 0.00 in0.0 mm 0.44 in11.2 mm
09:20 PM 59.0°F15.0°C 57.9°F14.4°C 96% 9.5 mph SW15.3 kmh SW 16.8 mph27.0 kmh 29.92 in1013.2 mb 0.00 in0.0 mm 0.00 in0.0 mm 0.44 in11.2 mm
09:30 PM 59.0°F15.0°C 57.9°F14.4°C 96% 8.1 mph WSW13.0 kmh WSW 24.7 mph39.8 kmh 29.92 in1013.2 mb 0.00 in0.0 mm 0.00 in0.0 mm 0.44 in11.2 mm
09:40 PM 59.2°F15.1°C 58.0°F14.4°C 96% 8.7 mph WSW14.0 kmh WSW 19.3 mph31.1 kmh 29.92 in1013.2 mb 0.00 in0.0 mm 0.00 in0.0 mm 0.44 in11.2 mm
09:50 PM 59.2°F15.1°C 58.0°F14.4°C 96% 9.2 mph WSW14.8 kmh WSW 20.0 mph32.2 kmh 29.92 in1013.2 mb 0.00 in0.0 mm 0.00 in0.0 mm 0.44 in11.2 mm
10:00 PM 59.2°F15.1°C 58.0°F14.4°C 96% 8.5 mph WSW13.7 kmh WSW 17.2 mph27.7 kmh 29.92 in1013.2 mb 0.00 in0.0 mm 0.00 in0.0 mm 0.44 in11.2 mm
10:10 PM 59.4°F15.2°C 58.2°F14.6°C 96% 6.8 mph SW10.9 kmh SW 15.4 mph24.8 kmh 29.92 in1013.2 mb 0.00 in0.0 mm 0.00 in0.0 mm 0.44 in11.2 mm
10:20 PM 59.5°F15.3°C 58.4°F14.7°C 96% 8.3 mph W13.4 kmh W 16.1 mph25.9 kmh 29.92 in1013.2 mb 0.00 in0.0 mm 0.00 in0.0 mm 0.44 in11.2 mm
10:30 PM 59.4°F15.2°C 58.2°F14.6°C 96% 6.5 mph WSW10.5 kmh WSW 11.8 mph19.0 kmh 29.92 in1013.2 mb 0.00 in0.0 mm 0.00 in0.0 mm 0.44 in11.2 mm
10:40 PM 59.0°F15.0°C 57.6°F14.2°C 95% 5.5 mph W8.9 kmh W 11.8 mph19.0 kmh 29.92 in1013.2 mb 0.00 in0.0 mm 0.00 in0.0 mm 0.44 in11.2 mm
10:50 PM 59.0°F15.0°C 57.6°F14.2°C 95% 5.8 mph WSW9.3 kmh WSW 12.5 mph20.1 kmh 29.92 in1013.2 mb 0.00 in0.0 mm 0.00 in0.0 mm 0.44 in11.2 mm
11:00 PM 59.0°F15.0°C 57.6°F14.2°C 95% 4.3 mph W6.9 kmh W 11.1 mph17.9 kmh 29.92 in1013.2 mb 0.00 in0.0 mm 0.00 in0.0 mm 0.40 in10.2 mm
11:10 PM 59.0°F15.0°C 57.6°F14.2°C 95% 5.6 mph W9.0 kmh W 10.7 mph17.2 kmh 29.95 in1014.2 mb 0.00 in0.0 mm 0.00 in0.0 mm 0.40 in10.2 mm
11:20 PM 58.8°F14.9°C 57.4°F14.1°C 95% 6.2 mph W10.0 kmh W 15.0 mph24.1 kmh 29.95 in1014.2 mb 0.00 in0.0 mm 0.00 in0.0 mm 0.40 in10.2 mm
11:30 PM 58.8°F14.9°C 57.4°F14.1°C 95% 5.2 mph WSW8.4 kmh WSW 10.4 mph16.7 kmh 29.95 in1014.2 mb 0.00 in0.0 mm 0.00 in0.0 mm 0.40 in10.2 mm
11:40 PM 59.0°F15.0°C 57.6°F14.2°C 95% 3.9 mph W6.3 kmh W 8.6 mph13.8 kmh 29.95 in1014.2 mb 0.00 in0.0 mm 0.00 in0.0 mm 0.40 in10.2 mm
11:50 PM 58.8°F14.9°C 57.4°F14.1°C 95% 6.7 mph NW10.8 kmh NW 9.3 mph15.0 kmh 29.95 in1014.2 mb 0.00 in0.0 mm 0.00 in0.0 mm 0.40 in10.2 mm